createdAt,value
2024-05-09T06:29:45.750Z,37.38
2024-05-09T06:30:48.303Z,38.35
2024-05-09T10:33:17.560Z,34.16
2024-05-09T10:36:55.874Z,34.00
2024-05-09T10:38:09.073Z,32.71
2024-05-09T10:42:12.186Z,32.87
2024-05-09T10:43:12.245Z,33.35
2024-05-09T10:44:13.911Z,33.84
2024-05-09T10:45:13.551Z,35.93
2024-05-09T10:46:13.338Z,31.74
2024-05-09T10:47:13.185Z,32.07
2024-05-09T10:48:12.194Z,31.74
2024-05-09T10:49:12.198Z,31.42
2024-05-09T10:50:22.003Z,32.23
2024-05-09T10:51:13.169Z,31.90
2024-05-09T10:52:12.134Z,32.71
2024-05-09T10:53:12.077Z,34.97
2024-05-09T10:54:12.096Z,35.93
2024-05-09T10:55:13.824Z,31.90
2024-05-09T10:56:14.298Z,33.68
2024-05-09T10:57:34.575Z,35.13
2024-05-09T10:58:12.235Z,36.74
2024-05-09T10:59:12.047Z,32.71
2024-05-09T11:00:19.012Z,32.07
2024-05-09T11:01:13.273Z,32.55
2024-05-09T11:02:12.397Z,32.39
2024-05-09T11:03:12.018Z,32.23
2024-05-09T11:04:12.068Z,32.07
2024-05-09T11:05:12.193Z,32.55
2024-05-09T11:06:12.000Z,33.52
2024-05-09T11:07:13.314Z,31.58
2024-05-09T11:08:13.203Z,33.52
2024-05-09T11:09:13.112Z,32.87
2024-05-09T11:10:14.815Z,34.00
2024-05-09T11:11:13.080Z,34.48
2024-05-09T11:12:13.232Z,34.64
2024-05-09T11:13:13.233Z,34.64
2024-05-09T11:14:13.107Z,33.84
2024-05-09T11:15:13.055Z,34.48
2024-05-09T11:16:13.144Z,33.35
2024-05-09T11:17:13.100Z,34.00
2024-05-09T11:18:13.118Z,36.25
2024-05-09T11:19:13.190Z,34.80
2024-05-09T11:20:19.622Z,32.23
2024-05-09T11:21:14.986Z,33.19
2024-05-09T11:22:13.026Z,32.07
2024-05-09T11:23:13.008Z,31.42
2024-05-09T11:24:12.995Z,32.23
2024-05-09T11:25:13.185Z,32.55
2024-05-09T11:26:12.988Z,31.74
2024-05-09T11:27:12.945Z,31.74
2024-05-09T11:28:13.135Z,32.55
2024-05-09T11:29:17.049Z,31.90
2024-05-09T11:30:20.837Z,38.67
2024-05-09T11:31:14.980Z,31.90
2024-05-09T11:32:12.927Z,31.74
2024-05-09T11:33:12.942Z,31.74
2024-05-09T11:34:12.931Z,33.68
2024-05-09T11:35:12.870Z,32.71
2024-05-09T11:36:12.894Z,33.84
2024-05-09T11:37:12.984Z,34.97
2024-05-09T11:38:12.877Z,34.00
2024-05-09T11:39:12.841Z,34.16
2024-05-09T11:40:21.030Z,35.45
2024-05-09T11:41:14.823Z,34.16
2024-05-09T11:42:12.881Z,33.19
2024-05-09T11:43:12.863Z,32.87
2024-05-09T11:44:12.793Z,33.03
2024-05-09T11:45:12.755Z,32.87
2024-05-09T11:46:12.912Z,32.39
2024-05-09T11:47:12.865Z,32.23
2024-05-09T11:48:12.811Z,32.39
2024-05-09T11:49:12.926Z,31.90
2024-05-09T11:50:22.345Z,32.55
2024-05-09T11:51:14.740Z,33.68
2024-05-09T11:52:12.830Z,32.39
2024-05-09T11:53:12.743Z,32.39
2024-05-09T11:54:12.676Z,32.55
2024-05-09T11:55:12.844Z,32.55
2024-05-09T11:56:15.652Z,32.39
2024-05-09T11:57:28.166Z,31.90
2024-05-09T12:08:19.763Z,31.90
2024-05-09T12:09:19.773Z,32.87
2024-05-09T12:10:22.636Z,31.90
2024-05-09T12:11:20.778Z,31.26
2024-05-09T12:12:19.764Z,31.26
2024-05-09T12:13:19.994Z,31.42
2024-05-09T12:14:19.725Z,31.10
2024-05-09T12:15:19.721Z,31.90
2024-05-09T12:16:20.075Z,31.74
2024-05-09T12:17:19.707Z,31.90
2024-05-09T12:18:19.735Z,31.58
2024-05-09T12:19:19.731Z,31.10
2024-05-09T12:20:28.354Z,32.07
2024-05-09T12:21:20.652Z,32.55
2024-05-09T12:22:19.674Z,30.94
2024-05-09T12:23:19.708Z,32.07
2024-05-09T12:24:19.651Z,31.90
2024-05-09T12:25:19.676Z,32.39
2024-05-09T12:26:19.610Z,32.07
2024-05-09T12:27:19.598Z,32.55
2024-05-09T12:28:19.831Z,33.84
2024-05-09T12:29:19.598Z,33.19
2024-05-09T12:30:32.178Z,32.23
2024-05-09T12:31:20.595Z,35.93
2024-05-09T12:32:19.605Z,33.52
2024-05-09T12:33:19.745Z,32.55
2024-05-09T12:34:19.630Z,32.87
2024-05-09T12:35:19.505Z,32.55
2024-05-09T12:36:19.540Z,32.55
2024-05-09T12:37:19.564Z,33.84
2024-05-09T12:38:19.529Z,32.23
2024-05-09T12:39:19.511Z,31.90
2024-05-09T12:40:30.624Z,32.55
2024-05-09T12:41:20.456Z,32.39
2024-05-09T12:42:27.036Z,31.58
2024-05-09T12:43:20.572Z,31.42
2024-05-09T12:44:19.431Z,33.35
2024-05-09T12:45:19.427Z,32.87
2024-05-09T12:46:19.492Z,32.39
2024-05-09T12:47:19.423Z,32.87
2024-05-09T12:48:19.540Z,31.74
2024-05-09T12:49:20.227Z,31.42
2024-05-09T12:50:28.920Z,32.07
2024-05-09T12:51:20.356Z,35.13
2024-05-09T12:52:19.380Z,34.64
2024-05-09T12:53:19.371Z,32.39
2024-05-09T12:54:19.329Z,32.07
2024-05-09T12:55:19.362Z,32.23
2024-05-09T12:56:19.317Z,30.13
2024-05-09T12:57:19.332Z,31.58
2024-05-09T12:58:19.539Z,33.03
2024-05-09T12:59:19.288Z,31.74
2024-05-09T13:00:24.137Z,32.07
2024-05-09T13:01:20.376Z,32.23
2024-05-09T13:02:19.394Z,31.26
2024-05-09T13:03:19.470Z,32.39
2024-05-09T13:04:19.570Z,32.23
2024-05-09T13:05:19.356Z,31.58
2024-05-09T13:06:19.212Z,31.90
2024-05-09T13:07:19.406Z,31.10
2024-05-09T13:08:19.216Z,31.26
2024-05-09T13:09:19.234Z,30.13
2024-05-09T13:10:28.736Z,30.94
2024-05-09T13:11:20.255Z,31.10
2024-05-09T13:12:20.092Z,32.23
2024-05-09T13:13:19.615Z,32.07
2024-05-09T13:14:19.179Z,32.07
2024-05-09T13:15:19.130Z,31.26
2024-05-09T13:16:19.182Z,31.74
2024-05-09T13:17:19.167Z,32.23
2024-05-09T13:18:19.224Z,31.90
2024-05-09T13:19:19.168Z,34.32
2024-05-09T13:20:26.333Z,32.55
2024-05-09T13:21:20.107Z,31.10
2024-05-09T13:22:19.094Z,31.10
2024-05-09T13:23:19.047Z,31.58
2024-05-09T13:24:19.055Z,31.90
2024-05-09T13:25:19.103Z,31.26
2024-05-09T13:26:19.040Z,31.26
2024-05-09T13:27:19.042Z,30.94
2024-05-09T13:28:19.182Z,29.65
2024-05-09T13:29:18.995Z,29.17
2024-05-09T13:30:26.378Z,30.29
2024-05-09T13:31:20.023Z,31.58
2024-05-09T13:32:18.991Z,29.49
2024-05-09T13:33:19.039Z,30.62
2024-05-09T13:34:19.056Z,31.26
2024-05-09T13:35:18.943Z,31.74
2024-05-09T13:36:18.917Z,30.62
2024-05-09T13:37:18.966Z,31.58
2024-05-09T13:38:19.361Z,36.25
2024-05-09T13:39:18.890Z,32.39
2024-05-09T13:41:18.874Z,32.23
2024-05-09T13:42:18.857Z,32.07
2024-05-09T13:43:19.161Z,32.71
2024-05-09T13:44:18.841Z,31.90
2024-05-09T13:45:18.878Z,34.16
2024-05-09T13:46:18.959Z,37.71
2024-05-09T13:47:18.994Z,31.26
2024-05-09T13:48:19.073Z,31.74
2024-05-09T13:49:18.884Z,31.74
2024-05-09T13:50:27.995Z,31.74
2024-05-09T13:51:20.953Z,32.87
2024-05-09T13:52:19.996Z,32.39
2024-05-09T13:53:19.953Z,31.90
2024-05-09T13:54:22.374Z,32.07
2024-05-09T13:55:21.048Z,31.26
2024-05-09T13:56:19.934Z,32.39
2024-05-09T13:57:19.899Z,31.74
2024-05-09T13:58:19.970Z,32.07
2024-05-09T13:59:19.926Z,31.74
2024-05-09T14:00:31.922Z,32.39
2024-05-09T14:01:21.926Z,31.74
2024-05-09T14:02:20.086Z,32.23
2024-05-09T14:03:20.916Z,32.71
2024-05-09T14:04:20.088Z,30.62
2024-05-09T14:05:20.001Z,31.10
2024-05-09T14:06:19.795Z,30.94
2024-05-09T14:07:19.884Z,30.62
2024-05-09T14:08:20.513Z,29.49
2024-05-09T14:09:19.786Z,30.13
2024-05-09T14:10:25.882Z,30.94
2024-05-09T14:11:21.810Z,29.65
2024-05-09T14:12:19.799Z,31.42
2024-05-09T14:13:19.993Z,31.42
2024-05-09T14:14:19.738Z,31.10
2024-05-09T14:15:19.731Z,31.10
2024-05-09T14:16:19.801Z,30.78
2024-05-09T14:17:19.812Z,31.42
2024-05-09T14:18:19.752Z,31.74
2024-05-09T14:19:19.782Z,31.90
2024-05-09T14:20:28.601Z,30.62
2024-05-09T14:21:21.762Z,33.19
2024-05-09T14:22:19.713Z,32.07
2024-05-09T14:23:19.669Z,31.58
2024-05-09T14:24:19.637Z,31.90
2024-05-09T14:25:19.688Z,31.58
2024-05-09T14:26:19.632Z,31.42
2024-05-09T14:27:19.671Z,31.26
2024-05-09T14:28:19.818Z,30.78
2024-05-09T14:29:19.624Z,30.78
2024-05-09T14:30:26.299Z,31.74
2024-05-09T14:31:21.663Z,30.94
2024-05-09T14:32:19.658Z,31.26
2024-05-09T14:33:19.648Z,33.68
2024-05-09T14:34:19.782Z,31.42
2024-05-09T14:35:19.665Z,30.78
2024-05-09T14:36:19.564Z,31.74
2024-05-09T14:37:19.572Z,30.29
2024-05-09T14:38:19.542Z,30.94
2024-05-09T14:39:19.525Z,31.26
2024-05-09T14:40:30.902Z,32.07
2024-05-09T14:41:21.496Z,30.62
2024-05-09T14:42:19.490Z,31.10
2024-05-09T14:43:19.540Z,32.39
2024-05-09T14:44:19.469Z,31.26
2024-05-09T14:45:19.464Z,30.62
2024-05-09T14:46:19.582Z,30.62
2024-05-09T14:47:19.502Z,31.10
2024-05-09T14:48:19.565Z,32.55
2024-05-09T14:49:19.609Z,32.87
2024-05-09T14:50:27.227Z,30.94
2024-05-09T14:51:21.428Z,32.07
2024-05-09T14:52:19.430Z,30.94
2024-05-09T14:53:19.389Z,31.10
2024-05-09T14:54:19.365Z,30.78
2024-05-09T14:55:19.430Z,29.33
2024-05-09T14:56:19.341Z,30.94
2024-05-09T14:57:19.360Z,31.26
2024-05-09T14:58:19.387Z,30.94
2024-05-09T14:59:19.356Z,34.00
2024-05-09T15:00:26.241Z,33.84
2024-05-09T15:01:21.385Z,32.71
2024-05-09T15:02:19.527Z,33.52
2024-05-09T15:03:19.930Z,34.64
2024-05-09T15:04:19.642Z,31.42
2024-05-09T15:05:19.373Z,31.74
2024-05-09T15:06:19.358Z,32.87
2024-05-09T15:07:19.318Z,30.45
2024-05-09T15:08:19.328Z,30.45
2024-05-09T15:09:19.235Z,31.58
2024-05-09T15:10:26.903Z,30.29
2024-05-09T15:11:21.282Z,30.78
2024-05-09T15:12:19.214Z,29.97
2024-05-09T15:13:19.361Z,32.07
2024-05-09T15:14:19.235Z,30.62
2024-05-09T15:15:19.197Z,30.13
2024-05-09T15:16:19.217Z,31.10
2024-05-09T15:17:19.139Z,30.94
2024-05-09T15:18:19.400Z,31.58
2024-05-09T15:19:19.295Z,34.97
2024-05-09T15:20:26.876Z,31.74
2024-05-09T15:21:21.142Z,33.52
2024-05-09T15:22:19.186Z,32.39
2024-05-09T15:23:19.062Z,31.74
2024-05-09T15:24:19.092Z,32.55
2024-05-09T15:25:19.204Z,32.39
2024-05-09T15:26:20.076Z,32.39
2024-05-09T15:27:19.115Z,34.32
2024-05-09T15:28:19.122Z,32.23
2024-05-09T15:29:19.063Z,31.58
2024-05-09T15:30:24.489Z,31.58
2024-05-09T15:31:21.060Z,31.26
2024-05-09T15:32:19.025Z,32.71
2024-05-09T15:33:19.103Z,32.55
2024-05-09T15:34:19.084Z,33.19
2024-05-09T15:35:19.009Z,32.39
2024-05-09T15:36:18.999Z,32.87
2024-05-09T15:37:19.213Z,32.55
2024-05-09T15:38:18.968Z,32.39
2024-05-09T15:39:18.944Z,33.03
2024-05-09T15:40:26.557Z,31.26
2024-05-09T15:41:20.947Z,31.90
2024-05-09T15:42:18.961Z,31.90
2024-05-09T15:43:18.982Z,32.39
2024-05-09T15:44:18.915Z,34.64
2024-05-09T15:45:18.872Z,34.48
2024-05-09T15:46:18.945Z,32.23
2024-05-09T15:47:18.900Z,31.74
2024-05-09T15:48:19.118Z,32.39
2024-05-09T15:49:19.090Z,32.55
2024-05-09T15:50:38.797Z,32.39
2024-05-09T15:52:37.849Z,32.55
2024-05-09T17:09:47.748Z,30.62
2024-05-09T17:10:47.903Z,31.26
2024-05-09T17:11:47.756Z,30.29
2024-05-09T17:12:47.770Z,31.10
2024-05-09T17:13:48.343Z,31.10
2024-05-09T17:14:47.679Z,30.78
2024-05-09T17:15:47.810Z,31.10
2024-05-09T17:16:47.784Z,30.78
2024-05-09T17:17:47.721Z,32.39
2024-05-09T17:18:47.660Z,29.97
2024-05-09T17:19:47.605Z,31.58
2024-05-09T17:20:47.643Z,29.97
2024-05-09T17:21:47.666Z,30.13
2024-05-09T17:22:47.594Z,31.90
2024-05-09T17:23:47.573Z,30.62
2024-05-09T17:24:47.599Z,30.13
2024-05-09T17:25:47.631Z,31.26
2024-05-09T17:26:47.539Z,31.26
2024-05-09T17:27:47.576Z,36.42
2024-05-09T17:28:47.522Z,28.68
2024-05-09T17:29:47.523Z,28.52
2024-05-09T17:30:47.513Z,31.58
2024-05-09T17:31:47.498Z,33.35
2024-05-09T17:32:47.520Z,30.13
2024-05-09T17:33:47.618Z,31.90
2024-05-09T17:34:47.516Z,31.42
2024-05-09T17:35:47.550Z,32.23
2024-05-09T17:36:47.523Z,32.87
2024-05-09T17:37:47.416Z,32.55
2024-05-09T17:38:47.412Z,33.19
2024-05-09T17:39:47.489Z,31.90
2024-05-09T17:40:47.577Z,32.23
2024-05-09T17:41:47.413Z,31.74
2024-05-09T17:42:47.414Z,34.64
2024-05-09T17:43:47.353Z,31.42
2024-05-09T17:44:47.343Z,32.23
2024-05-09T17:45:47.406Z,32.87
2024-05-09T17:46:47.318Z,32.39
2024-05-09T17:47:47.381Z,32.23
2024-05-09T17:48:47.431Z,31.26
2024-05-09T17:49:47.389Z,32.55
2024-05-09T17:50:47.299Z,34.32
2024-05-09T17:51:47.302Z,32.07
2024-05-09T17:52:47.259Z,32.07
2024-05-09T17:53:47.259Z,32.55
2024-05-09T17:54:47.297Z,31.74
2024-05-09T17:55:47.262Z,31.74
2024-05-09T17:56:47.227Z,31.74
2024-05-09T17:57:48.398Z,31.90
2024-05-09T17:58:48.378Z,34.00
2024-05-09T17:59:48.394Z,32.55
2024-05-09T18:00:48.472Z,32.07
2024-05-09T18:01:48.467Z,32.71
2024-05-09T18:02:48.388Z,33.84
2024-05-09T18:03:48.544Z,33.68
2024-05-09T18:04:48.412Z,33.19
2024-05-09T18:05:48.363Z,31.42
2024-05-09T18:06:48.312Z,33.19
2024-05-09T18:07:48.307Z,33.35
2024-05-09T18:08:48.278Z,36.58
2024-05-09T18:09:48.316Z,34.00
2024-05-09T18:10:48.266Z,38.51
2024-05-09T18:11:48.288Z,38.51
2024-05-09T18:12:48.277Z,35.77
2024-05-09T18:13:48.244Z,35.93
2024-05-09T18:14:48.225Z,37.22
2024-05-09T18:15:48.262Z,38.83
2024-05-09T18:16:48.220Z,33.68
2024-05-09T18:17:48.259Z,34.48
2024-05-09T18:18:48.335Z,34.97
2024-05-09T18:19:48.184Z,35.77
2024-05-09T18:20:48.235Z,35.93
2024-05-09T18:21:48.156Z,36.09
2024-05-09T18:22:49.127Z,37.38
2024-05-09T18:23:48.158Z,36.25
2024-05-09T18:24:48.180Z,35.93
2024-05-09T18:25:48.402Z,36.74
2024-05-09T18:26:48.132Z,35.93
2024-05-09T18:27:48.119Z,36.58
2024-05-09T18:28:48.080Z,37.22
2024-05-09T18:29:48.099Z,40.61
2024-05-09T18:30:48.144Z,36.42
2024-05-09T18:31:48.140Z,39.16
2024-05-09T18:32:48.347Z,40.61
2024-05-09T18:33:48.243Z,35.77
2024-05-09T18:34:48.173Z,37.38
2024-05-09T18:35:48.069Z,36.74
2024-05-09T18:36:48.135Z,35.93
2024-05-09T18:37:49.383Z,36.09
2024-05-09T18:38:53.498Z,36.25
2024-05-09T18:39:49.035Z,38.51
2024-05-09T18:40:49.393Z,36.42
2024-05-09T18:41:48.007Z,35.93
2024-05-09T18:42:48.279Z,35.61
2024-05-09T18:43:50.395Z,35.77
2024-05-09T18:44:48.976Z,38.03
2024-05-09T18:45:48.304Z,37.06
2024-05-09T18:46:48.013Z,36.90
2024-05-09T18:47:48.223Z,38.03
2024-05-09T18:48:48.176Z,38.19
2024-05-09T18:49:48.041Z,36.74
2024-05-09T18:50:48.120Z,37.54
2024-05-09T18:51:48.064Z,37.71
2024-05-09T18:52:47.899Z,37.22
2024-05-09T18:53:47.944Z,36.74
2024-05-09T18:54:48.026Z,36.42
2024-05-09T18:55:47.873Z,36.42
2024-05-09T18:56:47.986Z,37.54
2024-05-09T18:57:47.911Z,37.71
2024-05-09T18:58:47.859Z,40.93
2024-05-09T18:59:47.832Z,40.61
2024-05-09T19:00:50.362Z,37.71
2024-05-09T19:01:47.958Z,37.38
2024-05-09T19:02:48.059Z,36.25
2024-05-09T19:03:47.973Z,37.22
2024-05-09T19:04:48.011Z,39.32
2024-05-09T19:05:48.088Z,38.35
2024-05-09T19:06:47.884Z,39.16
2024-05-09T19:07:47.841Z,37.71
2024-05-09T19:08:47.921Z,37.22
2024-05-09T19:09:47.791Z,37.54
2024-05-09T19:10:47.895Z,37.71
2024-05-09T19:11:47.917Z,37.87
2024-05-09T19:12:47.737Z,38.03
2024-05-09T19:13:47.712Z,37.71
2024-05-09T19:14:47.811Z,38.99
2024-05-09T19:15:47.684Z,36.42
2024-05-09T19:16:47.652Z,38.67
2024-05-09T19:17:47.744Z,39.16
2024-05-09T19:18:47.744Z,38.19
2024-05-09T19:19:47.715Z,39.48
2024-05-09T19:20:47.662Z,39.48
2024-05-09T19:21:47.579Z,39.64
2024-05-09T19:22:47.550Z,37.87
2024-05-09T19:23:52.115Z,38.83
2024-05-09T19:24:49.440Z,38.35
2024-05-09T19:25:47.584Z,37.54
2024-05-09T19:26:47.519Z,38.99
2024-05-09T19:27:47.587Z,39.64
2024-05-09T19:28:47.570Z,38.99
2024-05-09T19:29:47.511Z,38.19
2024-05-09T19:30:47.564Z,37.87
2024-05-09T19:31:47.541Z,38.51
2024-05-09T19:32:47.674Z,38.35
2024-05-09T19:33:47.517Z,37.87
2024-05-09T19:34:47.474Z,38.67
2024-05-09T19:35:47.428Z,39.32
2024-05-09T19:36:47.427Z,37.54
2024-05-09T19:37:47.415Z,40.77
2024-05-09T19:38:47.439Z,38.35
2024-05-09T19:39:47.429Z,38.83
2024-05-09T19:40:47.649Z,39.96
2024-05-09T19:41:47.383Z,39.32
2024-05-09T19:42:47.420Z,38.51
2024-05-09T19:43:47.364Z,38.19
2024-05-09T19:44:47.406Z,38.03
2024-05-09T19:45:47.427Z,38.51
2024-05-09T19:46:47.317Z,38.99
2024-05-09T19:47:47.501Z,38.83
2024-05-09T19:48:47.408Z,38.99
2024-05-09T19:49:47.300Z,37.87
2024-05-09T19:50:48.344Z,37.38
2024-05-09T19:51:47.290Z,37.87
2024-05-09T19:52:47.283Z,39.16
2024-05-09T19:53:47.270Z,36.90
2024-05-09T19:54:47.274Z,38.67
2024-05-09T19:55:47.294Z,40.77
2024-05-09T19:56:47.236Z,38.83
2024-05-09T19:57:48.316Z,39.16
2024-05-09T19:58:47.260Z,38.99
2024-05-09T19:59:47.176Z,39.48
2024-05-09T20:00:47.262Z,38.83
2024-05-09T20:01:47.344Z,38.19
2024-05-09T20:02:47.362Z,39.64
2024-05-09T20:03:47.340Z,40.61
2024-05-09T20:04:47.189Z,39.80
2024-05-09T20:05:47.638Z,39.16
2024-05-09T20:06:47.166Z,37.54
2024-05-09T20:07:47.129Z,39.32
2024-05-09T20:08:47.207Z,39.32
2024-05-09T20:09:47.150Z,40.61
2024-05-09T20:10:47.331Z,40.44
2024-05-09T20:11:47.446Z,40.77
2024-05-09T20:12:47.077Z,39.32
2024-05-09T20:13:47.066Z,39.16
2024-05-09T20:14:47.091Z,39.80
2024-05-09T20:15:47.125Z,39.32
2024-05-09T20:16:47.020Z,39.96
2024-05-09T20:17:47.263Z,40.77
2024-05-09T20:18:47.196Z,39.96
2024-05-09T20:19:47.089Z,40.28
2024-05-09T20:20:48.945Z,39.80
2024-05-09T20:21:47.012Z,39.64
2024-05-09T20:22:47.024Z,39.64
2024-05-09T20:23:46.949Z,41.57
2024-05-09T20:24:46.974Z,43.02
2024-05-09T20:25:47.004Z,40.93
2024-05-09T20:26:46.969Z,42.06
2024-05-09T20:27:46.960Z,38.51
2024-05-09T20:28:46.994Z,39.48
2024-05-09T20:29:46.948Z,39.96
2024-05-09T20:38:17.486Z,41.57
2024-05-09T20:39:17.537Z,40.61
2024-05-09T20:40:25.495Z,39.80
2024-05-09T20:41:18.490Z,41.25
2024-05-09T20:42:40.484Z,38.83
2024-05-09T20:43:17.593Z,38.83
2024-05-09T20:44:17.455Z,39.80
2024-05-09T20:45:17.453Z,41.73
2024-05-09T20:46:17.460Z,41.41
2024-05-09T20:47:17.391Z,39.64
2024-05-09T20:48:17.528Z,39.32
2024-05-09T20:49:17.794Z,38.99
2024-05-09T20:50:27.573Z,40.12
2024-05-09T20:51:18.378Z,38.67
2024-05-09T20:52:17.395Z,38.67
2024-05-09T20:53:17.351Z,38.51
2024-05-09T20:54:17.361Z,38.83
2024-05-09T20:55:17.369Z,38.83
2024-05-09T20:56:17.313Z,38.67
2024-05-09T20:57:17.297Z,38.51
2024-05-09T20:58:17.389Z,38.19
2024-05-09T20:59:17.296Z,37.22
2024-05-09T21:00:19.327Z,37.87
2024-05-09T21:01:18.345Z,39.48
2024-05-09T21:02:17.496Z,38.51
2024-05-09T21:03:17.938Z,39.48
2024-05-09T21:04:17.423Z,39.80
2024-05-09T21:05:17.378Z,38.51
2024-05-09T21:06:17.251Z,37.06
2024-05-09T21:07:17.338Z,36.90
2024-05-09T21:08:17.248Z,37.06
2024-05-09T21:09:17.202Z,36.90
2024-05-09T21:10:22.386Z,37.22
2024-05-09T21:11:18.200Z,38.83
2024-05-09T21:12:17.218Z,40.12
2024-05-09T21:13:17.248Z,40.28
2024-05-09T21:14:17.149Z,40.28
2024-05-09T21:15:17.123Z,39.32
2024-05-09T21:16:17.255Z,39.96
2024-05-09T21:17:17.180Z,41.09
2024-05-09T21:18:17.105Z,41.57
2024-05-09T21:19:17.156Z,39.96
2024-05-09T21:20:20.713Z,40.44
2024-05-09T21:21:18.077Z,41.41
2024-05-09T21:22:17.202Z,40.61
2024-05-09T21:23:17.086Z,39.96
2024-05-09T21:24:17.026Z,40.12
2024-05-09T21:25:17.196Z,38.99
2024-05-09T21:26:17.018Z,41.09
2024-05-09T21:27:17.011Z,41.89
2024-05-09T21:28:17.087Z,41.57
2024-05-09T21:29:16.978Z,41.89
2024-05-09T21:30:26.714Z,39.96
2024-05-09T21:31:18.025Z,39.80
2024-05-09T21:32:17.017Z,39.32
2024-05-09T21:33:17.007Z,40.44
2024-05-09T21:34:16.995Z,40.28
2024-05-09T21:35:16.944Z,38.99
2024-05-09T21:36:16.949Z,38.19
2024-05-09T21:37:17.020Z,38.67
2024-05-09T21:38:16.891Z,42.54
2024-05-09T21:39:16.907Z,41.25
2024-05-09T21:42:53.640Z,39.48
2024-05-09T21:43:53.606Z,39.32
2024-05-09T21:44:53.589Z,38.67
2024-05-09T21:45:55.194Z,39.96
2024-05-09T21:46:53.574Z,41.57
2024-05-09T21:47:53.696Z,39.80
2024-05-09T21:48:53.677Z,39.16
2024-05-09T21:49:53.541Z,39.32
2024-05-09T21:50:53.523Z,38.03
2024-05-09T21:51:53.538Z,40.28
2024-05-09T21:52:53.503Z,40.12
2024-05-09T21:53:53.550Z,40.28
2024-05-09T21:54:53.515Z,40.77
2024-05-09T21:55:53.472Z,39.16
2024-05-09T21:56:53.460Z,39.16
2024-05-09T21:57:53.466Z,39.16
2024-05-09T21:58:53.451Z,40.61
2024-05-09T21:59:53.423Z,40.77
2024-05-09T22:00:53.479Z,39.80
2024-05-09T22:01:53.476Z,38.99
2024-05-09T22:02:53.441Z,39.80
2024-05-09T22:03:53.491Z,39.96
2024-05-09T22:04:53.461Z,39.64
2024-05-09T22:05:53.366Z,40.12
2024-05-09T22:06:53.374Z,40.77
2024-05-09T22:07:53.361Z,42.22
2024-05-09T22:08:53.350Z,39.64
2024-05-09T22:09:53.372Z,39.80
2024-05-09T22:10:53.476Z,39.48
2024-05-09T22:11:54.491Z,39.80
2024-05-09T22:12:53.349Z,40.61
2024-05-09T22:13:53.297Z,39.96
2024-05-09T22:14:53.276Z,39.96
2024-05-09T22:15:53.291Z,39.48
2024-05-09T22:16:53.280Z,39.16
2024-05-09T22:17:54.303Z,39.64
2024-05-09T22:18:53.390Z,39.64
2024-05-09T22:19:53.233Z,39.64
2024-05-09T22:20:53.218Z,38.99
2024-05-09T22:21:53.298Z,40.12
2024-05-09T22:22:53.215Z,39.16
2024-05-09T22:23:53.222Z,39.16
2024-05-09T22:24:53.194Z,39.48
2024-05-09T22:25:53.186Z,39.16
2024-05-09T22:26:53.167Z,40.93
2024-05-09T22:27:53.188Z,39.32
2024-05-09T22:28:53.138Z,40.77
2024-05-09T22:29:53.128Z,39.96
2024-05-09T22:30:53.134Z,40.28
2024-05-09T22:31:53.111Z,41.09
2024-05-09T22:32:53.258Z,40.93
2024-05-09T22:33:53.394Z,41.25
2024-05-09T22:34:53.145Z,41.25
2024-05-09T22:35:53.070Z,39.64
2024-05-09T22:36:53.095Z,40.12
2024-05-09T22:37:53.043Z,39.48
2024-05-09T22:38:53.035Z,40.77
2024-05-09T22:39:53.031Z,38.83
2024-05-09T22:40:53.268Z,39.32
2024-05-09T22:41:53.004Z,39.80
2024-05-09T22:42:53.004Z,40.28
2024-05-09T22:43:52.966Z,39.96
2024-05-09T22:44:52.971Z,40.44
2024-05-09T22:45:53.331Z,40.93
2024-05-09T22:46:52.971Z,40.61
2024-05-09T22:47:53.038Z,39.48
2024-05-09T22:48:53.021Z,39.96
2024-05-09T22:49:52.969Z,39.64
2024-05-09T22:50:52.936Z,39.48
2024-05-09T22:51:52.941Z,38.99
2024-05-09T22:52:52.880Z,38.67
2024-05-09T22:53:52.870Z,38.19
2024-05-09T22:54:52.900Z,40.28
2024-05-09T22:55:52.857Z,39.32
2024-05-09T22:56:52.840Z,39.48
2024-05-09T22:57:52.903Z,39.96
2024-05-09T22:58:52.817Z,38.35
2024-05-09T22:59:52.845Z,38.67
2024-05-09T23:00:53.095Z,39.48
2024-05-09T23:01:52.891Z,38.67
2024-05-09T23:02:52.836Z,39.96
2024-05-09T23:03:52.887Z,40.93
2024-05-09T23:04:52.844Z,40.44
2024-05-09T23:05:52.764Z,40.61
2024-05-09T23:06:52.762Z,39.96
2024-05-09T23:07:52.728Z,40.61
2024-05-09T23:08:52.762Z,39.80
2024-05-09T23:09:52.765Z,40.28
2024-05-09T23:10:52.748Z,41.73
2024-05-09T23:11:52.743Z,42.22
2024-05-09T23:12:52.756Z,40.44
2024-05-09T23:13:52.689Z,39.96
2024-05-09T23:14:52.661Z,38.67
2024-05-09T23:15:52.715Z,37.71
2024-05-09T23:16:52.693Z,38.83
2024-05-09T23:17:52.935Z,38.67
2024-05-09T23:18:52.686Z,38.35
2024-05-09T23:19:52.631Z,38.19
2024-05-09T23:20:52.592Z,39.48
2024-05-09T23:21:52.620Z,40.12
2024-05-09T23:22:52.572Z,39.48
2024-05-09T23:23:52.614Z,40.61
2024-05-09T23:24:52.587Z,40.12
2024-05-09T23:25:52.538Z,39.96
2024-05-09T23:26:52.540Z,39.96
2024-05-09T23:27:52.624Z,40.61
2024-05-09T23:28:52.532Z,40.44
2024-05-09T23:29:53.711Z,39.80
2024-05-09T23:30:53.692Z,39.32
2024-05-09T23:31:53.680Z,41.73
2024-05-09T23:32:53.792Z,39.80
2024-05-09T23:33:53.882Z,39.64
2024-05-09T23:34:53.742Z,40.61
2024-05-09T23:35:53.635Z,40.77
2024-05-09T23:36:53.667Z,41.09
2024-05-09T23:37:53.738Z,41.89
2024-05-09T23:38:53.827Z,41.73
2024-05-09T23:39:53.817Z,41.25
2024-05-09T23:40:53.790Z,41.57
2024-05-09T23:41:53.817Z,40.61
2024-05-09T23:42:53.787Z,41.25
2024-05-09T23:43:53.643Z,42.22
2024-05-09T23:44:53.742Z,42.06
2024-05-09T23:45:53.868Z,40.61
2024-05-09T23:46:53.836Z,40.12
2024-05-09T23:47:54.162Z,39.16
2024-05-09T23:48:53.748Z,40.12
2024-05-09T23:49:53.599Z,41.25
2024-05-09T23:50:53.725Z,41.73
2024-05-09T23:51:53.833Z,40.77
2024-05-09T23:52:53.759Z,41.57
2024-05-09T23:53:53.666Z,41.41
2024-05-09T23:54:53.937Z,40.61
2024-05-09T23:55:53.785Z,41.57
2024-05-09T23:56:53.531Z,40.93
2024-05-09T23:57:53.543Z,40.28
2024-05-09T23:58:53.533Z,40.61
2024-05-09T23:59:53.522Z,40.77
